sensor_id;sensor_type;location;lat;lon;timestamp;P1;durP1;ratioP1;P2;durP2;ratioP2
2522;SDS011;1272;53.332;9.860;2023-08-31T00:00:06;5.13;;;4.67;;
2522;SDS011;1272;53.332;9.860;2023-08-31T00:02:36;4.50;;;4.10;;
2522;SDS011;1272;53.332;9.860;2023-08-31T00:05:04;4.70;;;4.30;;
2522;SDS011;1272;53.332;9.860;2023-08-31T00:07:30;5.40;;;4.90;;
2522;SDS011;1272;53.332;9.860;2023-08-31T00:09:56;5.20;;;4.70;;
2522;SDS011;1272;53.332;9.860;2023-08-31T00:12:23;3.70;;;3.50;;
2522;SDS011;1272;53.332;9.860;2023-08-31T00:14:49;4.90;;;4.50;;
2522;SDS011;1272;53.332;9.860;2023-08-31T00:17:15;5.97;;;5.37;;
2522;SDS011;1272;53.332;9.860;2023-08-31T00:19:42;5.63;;;5.10;;
2522;SDS011;1272;53.332;9.860;2023-08-31T00:22:08;4.63;;;4.33;;
2522;SDS011;1272;53.332;9.860;2023-08-31T00:24:34;4.07;;;3.77;;
2522;SDS011;1272;53.332;9.860;2023-08-31T00:27:01;4.90;;;4.50;;
2522;SDS011;1272;53.332;9.860;2023-08-31T00:29:28;3.47;;;3.27;;
2522;SDS011;1272;53.332;9.860;2023-08-31T00:31:55;3.60;;;3.40;;
2522;SDS011;1272;53.332;9.860;2023-08-31T00:34:21;3.80;;;3.60;;
2522;SDS011;1272;53.332;9.860;2023-08-31T00:36:47;4.70;;;4.07;;
2522;SDS011;1272;53.332;9.860;2023-08-31T00:39:13;4.17;;;3.40;;
2522;SDS011;1272;53.332;9.860;2023-08-31T00:41:39;5.23;;;4.30;;
2522;SDS011;1272;53.332;9.860;2023-08-31T00:44:05;6.03;;;4.40;;
2522;SDS011;1272;53.332;9.860;2023-08-31T00:46:31;4.10;;;3.70;;
2522;SDS011;1272;53.332;9.860;2023-08-31T00:48:58;5.30;;;4.40;;
2522;SDS011;1272;53.332;9.860;2023-08-31T00:51:24;4.60;;;4.20;;
2522;SDS011;1272;53.332;9.860;2023-08-31T00:53:51;3.40;;;3.13;;
2522;SDS011;1272;53.332;9.860;2023-08-31T00:56:20;4.60;;;3.20;;
2522;SDS011;1272;53.332;9.860;2023-08-31T00:58:46;4.10;;;3.80;;
2522;SDS011;1272;53.332;9.860;2023-08-31T01:01:26;3.83;;;3.43;;
2522;SDS011;1272;53.332;9.860;2023-08-31T01:12:54;3.70;;;3.40;;
2522;SDS011;1272;53.332;9.860;2023-08-31T01:15:36;3.30;;;3.00;;
2522;SDS011;1272;53.332;9.860;2023-08-31T01:18:04;3.83;;;3.53;;
2522;SDS011;1272;53.332;9.860;2023-08-31T01:21:34;2.43;;;2.33;;
2522;SDS011;1272;53.332;9.860;2023-08-31T01:26:16;4.20;;;3.63;;
2522;SDS011;1272;53.332;9.860;2023-08-31T01:28:42;3.70;;;3.40;;
2522;SDS011;1272;53.332;9.860;2023-08-31T01:31:08;5.33;;;4.10;;
2522;SDS011;1272;53.332;9.860;2023-08-31T01:33:34;4.80;;;4.13;;
2522;SDS011;1272;53.332;9.860;2023-08-31T01:36:00;4.50;;;4.00;;
2522;SDS011;1272;53.332;9.860;2023-08-31T01:38:33;4.10;;;3.77;;
2522;SDS011;1272;53.332;9.860;2023-08-31T01:41:06;3.80;;;3.50;;
2522;SDS011;1272;53.332;9.860;2023-08-31T01:43:34;3.53;;;3.23;;
2522;SDS011;1272;53.332;9.860;2023-08-31T01:46:01;4.33;;;3.93;;
2522;SDS011;1272;53.332;9.860;2023-08-31T01:48:27;3.97;;;3.60;;
2522;SDS011;1272;53.332;9.860;2023-08-31T01:50:53;4.37;;;3.97;;
2522;SDS011;1272;53.332;9.860;2023-08-31T01:53:19;6.00;;;3.70;;
2522;SDS011;1272;53.332;9.860;2023-08-31T01:55:44;3.40;;;3.10;;
2522;SDS011;1272;53.332;9.860;2023-08-31T01:58:10;3.37;;;3.17;;
2522;SDS011;1272;53.332;9.860;2023-08-31T02:00:36;3.50;;;3.20;;
2522;SDS011;1272;53.332;9.860;2023-08-31T02:03:03;6.67;;;3.50;;
2522;SDS011;1272;53.332;9.860;2023-08-31T02:05:29;6.33;;;3.50;;
2522;SDS011;1272;53.332;9.860;2023-08-31T02:07:55;3.73;;;3.53;;
2522;SDS011;1272;53.332;9.860;2023-08-31T02:10:20;6.80;;;3.37;;
2522;SDS011;1272;53.332;9.860;2023-08-31T02:12:46;4.17;;;3.80;;
2522;SDS011;1272;53.332;9.860;2023-08-31T02:15:30;4.10;;;3.20;;
2522;SDS011;1272;53.332;9.860;2023-08-31T02:17:55;3.50;;;3.30;;
2522;SDS011;1272;53.332;9.860;2023-08-31T02:20:21;3.93;;;3.63;;
2522;SDS011;1272;53.332;9.860;2023-08-31T02:22:47;4.10;;;3.80;;
2522;SDS011;1272;53.332;9.860;2023-08-31T02:25:14;3.33;;;3.07;;
2522;SDS011;1272;53.332;9.860;2023-08-31T02:27:41;4.43;;;3.60;;
2522;SDS011;1272;53.332;9.860;2023-08-31T02:30:07;5.23;;;3.33;;
2522;SDS011;1272;53.332;9.860;2023-08-31T02:32:34;3.60;;;3.30;;
2522;SDS011;1272;53.332;9.860;2023-08-31T02:34:59;4.67;;;3.57;;
2522;SDS011;1272;53.332;9.860;2023-08-31T02:37:25;4.33;;;3.93;;
2522;SDS011;1272;53.332;9.860;2023-08-31T02:39:51;4.30;;;3.60;;
2522;SDS011;1272;53.332;9.860;2023-08-31T02:42:17;3.83;;;3.57;;
2522;SDS011;1272;53.332;9.860;2023-08-31T02:44:42;5.43;;;3.97;;
2522;SDS011;1272;53.332;9.860;2023-08-31T02:47:08;3.87;;;3.53;;
2522;SDS011;1272;53.332;9.860;2023-08-31T02:49:34;4.70;;;4.30;;
2522;SDS011;1272;53.332;9.860;2023-08-31T02:51:59;4.00;;;3.43;;
2522;SDS011;1272;53.332;9.860;2023-08-31T02:54:25;4.00;;;3.60;;
2522;SDS011;1272;53.332;9.860;2023-08-31T02:56:50;4.70;;;3.70;;
2522;SDS011;1272;53.332;9.860;2023-08-31T02:59:16;7.20;;;3.97;;
2522;SDS011;1272;53.332;9.860;2023-08-31T03:01:42;8.87;;;3.17;;
2522;SDS011;1272;53.332;9.860;2023-08-31T03:04:11;3.40;;;2.93;;
2522;SDS011;1272;53.332;9.860;2023-08-31T03:06:37;3.83;;;3.53;;
2522;SDS011;1272;53.332;9.860;2023-08-31T03:09:03;4.27;;;3.80;;
2522;SDS011;1272;53.332;9.860;2023-08-31T03:11:30;3.90;;;3.33;;
2522;SDS011;1272;53.332;9.860;2023-08-31T03:13:55;3.50;;;3.23;;
2522;SDS011;1272;53.332;9.860;2023-08-31T03:16:21;3.50;;;3.20;;
2522;SDS011;1272;53.332;9.860;2023-08-31T03:18:47;3.93;;;3.63;;
2522;SDS011;1272;53.332;9.860;2023-08-31T03:21:15;4.00;;;3.50;;
2522;SDS011;1272;53.332;9.860;2023-08-31T03:23:41;3.60;;;3.30;;
2522;SDS011;1272;53.332;9.860;2023-08-31T03:26:07;4.10;;;3.70;;
2522;SDS011;1272;53.332;9.860;2023-08-31T03:28:33;4.03;;;3.57;;
2522;SDS011;1272;53.332;9.860;2023-08-31T03:30:59;2.87;;;2.67;;
2522;SDS011;1272;53.332;9.860;2023-08-31T03:33:26;3.10;;;2.90;;
2522;SDS011;1272;53.332;9.860;2023-08-31T03:35:53;3.27;;;3.07;;
2522;SDS011;1272;53.332;9.860;2023-08-31T03:38:24;3.10;;;2.90;;
2522;SDS011;1272;53.332;9.860;2023-08-31T03:40:53;3.90;;;3.43;;
2522;SDS011;1272;53.332;9.860;2023-08-31T03:43:20;3.43;;;3.23;;
2522;SDS011;1272;53.332;9.860;2023-08-31T03:45:45;3.80;;;3.47;;
2522;SDS011;1272;53.332;9.860;2023-08-31T03:48:11;3.70;;;3.40;;
2522;SDS011;1272;53.332;9.860;2023-08-31T03:50:37;3.10;;;2.80;;
2522;SDS011;1272;53.332;9.860;2023-08-31T03:53:03;3.67;;;2.90;;
2522;SDS011;1272;53.332;9.860;2023-08-31T03:55:29;5.13;;;3.20;;
2522;SDS011;1272;53.332;9.860;2023-08-31T03:57:54;3.60;;;3.30;;
2522;SDS011;1272;53.332;9.860;2023-08-31T04:00:20;3.50;;;3.20;;
2522;SDS011;1272;53.332;9.860;2023-08-31T04:02:46;3.07;;;2.87;;
2522;SDS011;1272;53.332;9.860;2023-08-31T04:05:11;3.07;;;2.83;;
2522;SDS011;1272;53.332;9.860;2023-08-31T04:07:39;2.80;;;2.60;;
2522;SDS011;1272;53.332;9.860;2023-08-31T04:10:06;5.50;;;3.47;;
2522;SDS011;1272;53.332;9.860;2023-08-31T04:12:32;2.40;;;2.30;;
2522;SDS011;1272;53.332;9.860;2023-08-31T04:14:59;2.37;;;2.17;;
2522;SDS011;1272;53.332;9.860;2023-08-31T04:17:25;2.70;;;2.50;;
2522;SDS011;1272;53.332;9.860;2023-08-31T04:19:51;2.87;;;2.67;;
2522;SDS011;1272;53.332;9.860;2023-08-31T04:22:17;2.83;;;2.47;;
2522;SDS011;1272;53.332;9.860;2023-08-31T04:24:43;3.20;;;2.90;;
2522;SDS011;1272;53.332;9.860;2023-08-31T04:27:08;2.97;;;2.70;;
2522;SDS011;1272;53.332;9.860;2023-08-31T04:29:34;3.30;;;3.10;;
2522;SDS011;1272;53.332;9.860;2023-08-31T04:32:00;3.13;;;2.83;;
2522;SDS011;1272;53.332;9.860;2023-08-31T04:34:26;3.47;;;2.93;;
2522;SDS011;1272;53.332;9.860;2023-08-31T04:36:52;3.53;;;3.27;;
2522;SDS011;1272;53.332;9.860;2023-08-31T04:39:18;4.73;;;3.10;;
2522;SDS011;1272;53.332;9.860;2023-08-31T04:41:43;3.20;;;3.00;;
2522;SDS011;1272;53.332;9.860;2023-08-31T04:44:09;3.40;;;3.10;;
2522;SDS011;1272;53.332;9.860;2023-08-31T04:46:36;2.67;;;2.47;;
2522;SDS011;1272;53.332;9.860;2023-08-31T04:49:03;5.43;;;3.40;;
2522;SDS011;1272;53.332;9.860;2023-08-31T04:51:29;3.60;;;3.30;;
2522;SDS011;1272;53.332;9.860;2023-08-31T04:53:59;2.40;;;2.30;;
2522;SDS011;1272;53.332;9.860;2023-08-31T04:56:28;4.03;;;3.10;;
2522;SDS011;1272;53.332;9.860;2023-08-31T04:58:55;5.50;;;3.50;;
2522;SDS011;1272;53.332;9.860;2023-08-31T05:01:21;3.70;;;3.00;;
2522;SDS011;1272;53.332;9.860;2023-08-31T05:03:46;5.37;;;2.53;;
2522;SDS011;1272;53.332;9.860;2023-08-31T05:06:12;3.27;;;2.90;;
2522;SDS011;1272;53.332;9.860;2023-08-31T05:08:38;3.00;;;2.80;;
2522;SDS011;1272;53.332;9.860;2023-08-31T05:11:03;8.23;;;2.63;;
2522;SDS011;1272;53.332;9.860;2023-08-31T05:13:29;3.20;;;3.00;;
2522;SDS011;1272;53.332;9.860;2023-08-31T05:15:55;3.10;;;2.90;;
2522;SDS011;1272;53.332;9.860;2023-08-31T05:18:20;3.60;;;2.60;;
2522;SDS011;1272;53.332;9.860;2023-08-31T05:20:46;4.43;;;3.23;;
2522;SDS011;1272;53.332;9.860;2023-08-31T05:23:13;2.43;;;2.23;;
2522;SDS011;1272;53.332;9.860;2023-08-31T05:25:42;3.87;;;3.57;;
2522;SDS011;1272;53.332;9.860;2023-08-31T05:28:08;2.93;;;2.73;;
2522;SDS011;1272;53.332;9.860;2023-08-31T05:30:34;4.60;;;3.53;;
2522;SDS011;1272;53.332;9.860;2023-08-31T05:33:00;3.50;;;2.90;;
2522;SDS011;1272;53.332;9.860;2023-08-31T05:35:26;3.20;;;3.00;;
2522;SDS011;1272;53.332;9.860;2023-08-31T05:37:52;4.00;;;3.37;;
2522;SDS011;1272;53.332;9.860;2023-08-31T05:40:17;3.77;;;3.10;;
2522;SDS011;1272;53.332;9.860;2023-08-31T05:42:43;3.97;;;3.67;;
2522;SDS011;1272;53.332;9.860;2023-08-31T05:45:09;6.40;;;3.43;;
2522;SDS011;1272;53.332;9.860;2023-08-31T05:47:35;3.00;;;2.80;;
2522;SDS011;1272;53.332;9.860;2023-08-31T05:50:01;3.17;;;2.97;;
2522;SDS011;1272;53.332;9.860;2023-08-31T05:52:28;3.13;;;2.93;;
2522;SDS011;1272;53.332;9.860;2023-08-31T05:54:53;2.97;;;2.77;;
2522;SDS011;1272;53.332;9.860;2023-08-31T05:57:19;2.83;;;2.60;;
2522;SDS011;1272;53.332;9.860;2023-08-31T05:59:46;5.67;;;3.77;;
2522;SDS011;1272;53.332;9.860;2023-08-31T06:02:12;3.03;;;2.83;;
2522;SDS011;1272;53.332;9.860;2023-08-31T06:04:38;3.00;;;2.80;;
2522;SDS011;1272;53.332;9.860;2023-08-31T06:07:04;3.77;;;3.47;;
2522;SDS011;1272;53.332;9.860;2023-08-31T06:09:29;5.73;;;3.27;;
2522;SDS011;1272;53.332;9.860;2023-08-31T06:11:55;6.40;;;4.27;;
2522;SDS011;1272;53.332;9.860;2023-08-31T06:14:21;3.37;;;3.10;;
2522;SDS011;1272;53.332;9.860;2023-08-31T06:16:46;6.63;;;3.80;;
2522;SDS011;1272;53.332;9.860;2023-08-31T06:19:12;3.93;;;3.53;;
2522;SDS011;1272;53.332;9.860;2023-08-31T06:21:40;4.03;;;3.73;;
2522;SDS011;1272;53.332;9.860;2023-08-31T06:24:07;4.80;;;3.30;;
2522;SDS011;1272;53.332;9.860;2023-08-31T06:26:35;5.23;;;4.50;;
2522;SDS011;1272;53.332;9.860;2023-08-31T06:29:01;4.83;;;4.40;;
2522;SDS011;1272;53.332;9.860;2023-08-31T06:31:28;4.23;;;3.83;;
2522;SDS011;1272;53.332;9.860;2023-08-31T06:33:54;6.33;;;4.30;;
2522;SDS011;1272;53.332;9.860;2023-08-31T06:36:20;7.50;;;4.67;;
2522;SDS011;1272;53.332;9.860;2023-08-31T06:38:46;4.40;;;4.00;;
2522;SDS011;1272;53.332;9.860;2023-08-31T06:41:11;4.53;;;3.60;;
2522;SDS011;1272;53.332;9.860;2023-08-31T06:43:37;4.80;;;4.40;;
2522;SDS011;1272;53.332;9.860;2023-08-31T06:46:03;6.50;;;4.23;;
2522;SDS011;1272;53.332;9.860;2023-08-31T06:48:28;6.60;;;4.00;;
2522;SDS011;1272;53.332;9.860;2023-08-31T06:50:54;6.20;;;4.90;;
2522;SDS011;1272;53.332;9.860;2023-08-31T06:53:21;3.93;;;3.40;;
2522;SDS011;1272;53.332;9.860;2023-08-31T06:55:46;6.10;;;4.47;;
2522;SDS011;1272;53.332;9.860;2023-08-31T06:58:13;4.83;;;4.33;;
2522;SDS011;1272;53.332;9.860;2023-08-31T07:00:38;6.30;;;4.30;;
2522;SDS011;1272;53.332;9.860;2023-08-31T07:03:04;4.00;;;3.80;;
2522;SDS011;1272;53.332;9.860;2023-08-31T07:05:33;4.33;;;3.93;;
2522;SDS011;1272;53.332;9.860;2023-08-31T07:08:02;4.50;;;3.97;;
2522;SDS011;1272;53.332;9.860;2023-08-31T07:10:28;3.70;;;3.40;;
2522;SDS011;1272;53.332;9.860;2023-08-31T07:12:53;4.60;;;3.80;;
2522;SDS011;1272;53.332;9.860;2023-08-31T07:15:20;3.90;;;3.60;;
2522;SDS011;1272;53.332;9.860;2023-08-31T07:17:45;4.40;;;3.43;;
2522;SDS011;1272;53.332;9.860;2023-08-31T07:20:11;6.07;;;4.30;;
2522;SDS011;1272;53.332;9.860;2023-08-31T07:22:37;3.77;;;3.47;;
2522;SDS011;1272;53.332;9.860;2023-08-31T07:25:04;4.60;;;4.33;;
2522;SDS011;1272;53.332;9.860;2023-08-31T07:27:31;5.13;;;2.70;;
2522;SDS011;1272;53.332;9.860;2023-08-31T07:29:56;3.80;;;3.50;;
2522;SDS011;1272;53.332;9.860;2023-08-31T07:32:22;4.30;;;3.90;;
2522;SDS011;1272;53.332;9.860;2023-08-31T07:34:48;3.13;;;2.93;;
2522;SDS011;1272;53.332;9.860;2023-08-31T07:37:13;5.40;;;3.90;;
2522;SDS011;1272;53.332;9.860;2023-08-31T07:39:39;4.40;;;3.90;;
2522;SDS011;1272;53.332;9.860;2023-08-31T07:42:05;4.00;;;3.70;;
2522;SDS011;1272;53.332;9.860;2023-08-31T07:44:31;3.27;;;3.03;;
2522;SDS011;1272;53.332;9.860;2023-08-31T07:46:56;4.50;;;4.07;;
2522;SDS011;1272;53.332;9.860;2023-08-31T07:49:22;6.70;;;3.50;;
2522;SDS011;1272;53.332;9.860;2023-08-31T07:51:48;4.23;;;3.90;;
2522;SDS011;1272;53.332;9.860;2023-08-31T07:54:20;5.13;;;3.77;;
2522;SDS011;1272;53.332;9.860;2023-08-31T07:56:47;4.17;;;3.80;;
2522;SDS011;1272;53.332;9.860;2023-08-31T07:59:12;4.20;;;3.80;;
2522;SDS011;1272;53.332;9.860;2023-08-31T08:01:38;4.00;;;3.70;;
2522;SDS011;1272;53.332;9.860;2023-08-31T08:04:04;5.30;;;3.40;;
2522;SDS011;1272;53.332;9.860;2023-08-31T08:06:30;4.70;;;4.17;;
2522;SDS011;1272;53.332;9.860;2023-08-31T08:08:55;4.57;;;4.17;;
2522;SDS011;1272;53.332;9.860;2023-08-31T08:11:21;5.13;;;4.63;;
2522;SDS011;1272;53.332;9.860;2023-08-31T08:13:48;5.10;;;4.63;;
2522;SDS011;1272;53.332;9.860;2023-08-31T08:16:13;5.00;;;4.33;;
2522;SDS011;1272;53.332;9.860;2023-08-31T08:18:39;4.30;;;3.90;;
2522;SDS011;1272;53.332;9.860;2023-08-31T08:21:05;5.13;;;4.30;;
2522;SDS011;1272;53.332;9.860;2023-08-31T08:23:31;5.60;;;4.50;;
2522;SDS011;1272;53.332;9.860;2023-08-31T08:25:57;4.53;;;4.20;;
2522;SDS011;1272;53.332;9.860;2023-08-31T08:28:26;5.17;;;3.87;;
2522;SDS011;1272;53.332;9.860;2023-08-31T08:30:51;4.73;;;4.33;;
2522;SDS011;1272;53.332;9.860;2023-08-31T08:33:17;4.60;;;4.03;;
2522;SDS011;1272;53.332;9.860;2023-08-31T08:35:43;6.47;;;4.47;;
2522;SDS011;1272;53.332;9.860;2023-08-31T08:38:09;4.93;;;3.60;;
2522;SDS011;1272;53.332;9.860;2023-08-31T08:40:34;4.73;;;4.33;;
2522;SDS011;1272;53.332;9.860;2023-08-31T08:43:01;4.30;;;4.00;;
2522;SDS011;1272;53.332;9.860;2023-08-31T08:45:29;6.13;;;4.53;;
2522;SDS011;1272;53.332;9.860;2023-08-31T08:47:58;5.30;;;4.80;;
2522;SDS011;1272;53.332;9.860;2023-08-31T08:50:24;4.33;;;3.87;;
2522;SDS011;1272;53.332;9.860;2023-08-31T08:52:50;4.67;;;4.20;;
2522;SDS011;1272;53.332;9.860;2023-08-31T08:55:16;4.77;;;4.20;;
2522;SDS011;1272;53.332;9.860;2023-08-31T08:57:43;4.03;;;3.60;;
2522;SDS011;1272;53.332;9.860;2023-08-31T09:00:10;3.93;;;3.63;;
2522;SDS011;1272;53.332;9.860;2023-08-31T09:02:36;4.23;;;3.90;;
2522;SDS011;1272;53.332;9.860;2023-08-31T09:05:01;4.03;;;3.67;;
2522;SDS011;1272;53.332;9.860;2023-08-31T09:07:29;4.20;;;3.40;;
2522;SDS011;1272;53.332;9.860;2023-08-31T09:09:55;7.20;;;4.20;;
2522;SDS011;1272;53.332;9.860;2023-08-31T09:12:22;3.87;;;3.40;;
2522;SDS011;1272;53.332;9.860;2023-08-31T09:14:58;4.20;;;3.87;;
2522;SDS011;1272;53.332;9.860;2023-08-31T09:17:39;7.80;;;3.40;;
2522;SDS011;1272;53.332;9.860;2023-08-31T09:20:07;3.50;;;3.20;;
2522;SDS011;1272;53.332;9.860;2023-08-31T09:22:34;5.00;;;3.97;;
2522;SDS011;1272;53.332;9.860;2023-08-31T09:25:00;4.40;;;3.30;;
2522;SDS011;1272;53.332;9.860;2023-08-31T09:27:26;4.53;;;3.93;;
2522;SDS011;1272;53.332;9.860;2023-08-31T09:29:55;4.13;;;3.90;;
2522;SDS011;1272;53.332;9.860;2023-08-31T09:32:21;3.90;;;3.70;;
2522;SDS011;1272;53.332;9.860;2023-08-31T09:34:47;3.40;;;3.20;;
2522;SDS011;1272;53.332;9.860;2023-08-31T09:37:13;3.90;;;3.33;;
2522;SDS011;1272;53.332;9.860;2023-08-31T09:39:41;4.07;;;3.70;;
2522;SDS011;1272;53.332;9.860;2023-08-31T09:42:07;5.33;;;4.83;;
2522;SDS011;1272;53.332;9.860;2023-08-31T09:44:34;5.10;;;4.63;;
2522;SDS011;1272;53.332;9.860;2023-08-31T09:47:06;4.47;;;4.07;;
2522;SDS011;1272;53.332;9.860;2023-08-31T09:49:33;4.00;;;3.70;;
2522;SDS011;1272;53.332;9.860;2023-08-31T09:52:00;4.17;;;3.87;;
2522;SDS011;1272;53.332;9.860;2023-08-31T09:54:29;4.00;;;3.80;;
2522;SDS011;1272;53.332;9.860;2023-08-31T09:56:55;3.27;;;3.07;;
2522;SDS011;1272;53.332;9.860;2023-08-31T09:59:23;3.30;;;3.10;;
2522;SDS011;1272;53.332;9.860;2023-08-31T10:01:50;4.13;;;3.23;;
2522;SDS011;1272;53.332;9.860;2023-08-31T10:04:16;3.87;;;3.57;;
2522;SDS011;1272;53.332;9.860;2023-08-31T10:06:42;3.57;;;3.43;;
2522;SDS011;1272;53.332;9.860;2023-08-31T10:09:08;3.50;;;3.20;;
2522;SDS011;1272;53.332;9.860;2023-08-31T10:11:35;4.30;;;3.90;;
2522;SDS011;1272;53.332;9.860;2023-08-31T10:14:02;4.03;;;3.73;;
2522;SDS011;1272;53.332;9.860;2023-08-31T10:16:29;4.43;;;4.03;;
2522;SDS011;1272;53.332;9.860;2023-08-31T10:18:55;4.03;;;3.73;;
2522;SDS011;1272;53.332;9.860;2023-08-31T10:21:21;3.20;;;3.03;;
2522;SDS011;1272;53.332;9.860;2023-08-31T10:23:48;3.60;;;3.37;;
2522;SDS011;1272;53.332;9.860;2023-08-31T10:26:24;4.40;;;3.93;;
2522;SDS011;1272;53.332;9.860;2023-08-31T10:28:55;2.87;;;2.67;;
2522;SDS011;1272;53.332;9.860;2023-08-31T10:31:22;4.30;;;3.90;;
2522;SDS011;1272;53.332;9.860;2023-08-31T10:34:01;3.50;;;3.30;;
2522;SDS011;1272;53.332;9.860;2023-08-31T10:36:41;4.20;;;3.80;;
2522;SDS011;1272;53.332;9.860;2023-08-31T10:39:11;4.47;;;3.70;;
2522;SDS011;1272;53.332;9.860;2023-08-31T10:41:37;3.30;;;3.10;;
2522;SDS011;1272;53.332;9.860;2023-08-31T10:44:17;3.40;;;2.90;;
2522;SDS011;1272;53.332;9.860;2023-08-31T10:46:44;3.30;;;3.10;;
2522;SDS011;1272;53.332;9.860;2023-08-31T10:51:39;4.40;;;4.00;;
2522;SDS011;1272;53.332;9.860;2023-08-31T10:54:23;3.60;;;3.40;;
2522;SDS011;1272;53.332;9.860;2023-08-31T10:59:50;2.43;;;2.33;;
2522;SDS011;1272;53.332;9.860;2023-08-31T11:05:15;2.80;;;2.70;;
2522;SDS011;1272;53.332;9.860;2023-08-31T11:12:45;2.87;;;2.47;;
2522;SDS011;1272;53.332;9.860;2023-08-31T11:15:21;2.73;;;2.53;;
2522;SDS011;1272;53.332;9.860;2023-08-31T11:17:51;2.93;;;2.73;;
2522;SDS011;1272;53.332;9.860;2023-08-31T11:20:21;2.53;;;2.43;;
2522;SDS011;1272;53.332;9.860;2023-08-31T11:22:48;2.67;;;2.47;;
2522;SDS011;1272;53.332;9.860;2023-08-31T11:25:15;3.17;;;2.50;;
2522;SDS011;1272;53.332;9.860;2023-08-31T11:27:42;3.23;;;3.03;;
2522;SDS011;1272;53.332;9.860;2023-08-31T11:30:17;3.37;;;2.70;;
2522;SDS011;1272;53.332;9.860;2023-08-31T11:32:47;2.33;;;2.23;;
2522;SDS011;1272;53.332;9.860;2023-08-31T11:35:15;2.63;;;2.53;;
2522;SDS011;1272;53.332;9.860;2023-08-31T11:37:45;3.00;;;2.20;;
2522;SDS011;1272;53.332;9.860;2023-08-31T11:40:14;3.60;;;3.40;;
2522;SDS011;1272;53.332;9.860;2023-08-31T11:42:40;2.60;;;2.37;;
2522;SDS011;1272;53.332;9.860;2023-08-31T11:45:06;2.77;;;2.47;;
2522;SDS011;1272;53.332;9.860;2023-08-31T11:47:33;2.50;;;2.10;;
2522;SDS011;1272;53.332;9.860;2023-08-31T11:49:59;2.73;;;2.50;;
2522;SDS011;1272;53.332;9.860;2023-08-31T11:52:30;2.03;;;1.93;;
2522;SDS011;1272;53.332;9.860;2023-08-31T11:54:56;1.90;;;1.80;;
2522;SDS011;1272;53.332;9.860;2023-08-31T11:57:25;2.20;;;2.10;;
2522;SDS011;1272;53.332;9.860;2023-08-31T11:59:51;2.20;;;2.10;;
2522;SDS011;1272;53.332;9.860;2023-08-31T12:02:18;1.83;;;1.73;;
2522;SDS011;1272;53.332;9.860;2023-08-31T12:04:44;3.20;;;1.93;;
2522;SDS011;1272;53.332;9.860;2023-08-31T12:07:11;1.60;;;1.50;;
2522;SDS011;1272;53.332;9.860;2023-08-31T12:09:47;1.33;;;1.33;;
2522;SDS011;1272;53.332;9.860;2023-08-31T12:12:13;2.20;;;1.27;;
2522;SDS011;1272;53.332;9.860;2023-08-31T12:14:40;2.13;;;2.03;;
2522;SDS011;1272;53.332;9.860;2023-08-31T12:17:07;4.93;;;1.37;;
2522;SDS011;1272;53.332;9.860;2023-08-31T12:19:36;1.03;;;1.03;;
2522;SDS011;1272;53.332;9.860;2023-08-31T12:22:02;1.87;;;0.97;;
2522;SDS011;1272;53.332;9.860;2023-08-31T12:24:29;1.43;;;1.33;;
2522;SDS011;1272;53.332;9.860;2023-08-31T12:26:54;1.20;;;0.90;;
2522;SDS011;1272;53.332;9.860;2023-08-31T12:29:21;1.00;;;0.90;;
2522;SDS011;1272;53.332;9.860;2023-08-31T12:31:47;1.40;;;1.17;;
2522;SDS011;1272;53.332;9.860;2023-08-31T12:34:15;1.30;;;1.20;;
2522;SDS011;1272;53.332;9.860;2023-08-31T12:36:40;1.30;;;1.30;;
2522;SDS011;1272;53.332;9.860;2023-08-31T12:39:06;1.60;;;1.30;;
2522;SDS011;1272;53.332;9.860;2023-08-31T12:41:35;3.07;;;1.37;;
2522;SDS011;1272;53.332;9.860;2023-08-31T12:44:02;0.97;;;0.97;;
2522;SDS011;1272;53.332;9.860;2023-08-31T12:46:28;0.70;;;0.70;;
2522;SDS011;1272;53.332;9.860;2023-08-31T12:48:54;1.70;;;1.00;;
2522;SDS011;1272;53.332;9.860;2023-08-31T12:51:20;2.97;;;1.30;;
2522;SDS011;1272;53.332;9.860;2023-08-31T12:53:46;0.90;;;0.90;;
2522;SDS011;1272;53.332;9.860;2023-08-31T12:56:12;1.93;;;1.30;;
2522;SDS011;1272;53.332;9.860;2023-08-31T12:58:38;1.63;;;1.03;;
2522;SDS011;1272;53.332;9.860;2023-08-31T13:01:04;1.73;;;0.90;;
2522;SDS011;1272;53.332;9.860;2023-08-31T13:03:30;0.80;;;0.80;;
2522;SDS011;1272;53.332;9.860;2023-08-31T13:05:56;1.07;;;0.80;;
2522;SDS011;1272;53.332;9.860;2023-08-31T13:08:22;0.87;;;0.87;;
2522;SDS011;1272;53.332;9.860;2023-08-31T13:10:54;1.10;;;0.70;;
2522;SDS011;1272;53.332;9.860;2023-08-31T13:13:20;1.40;;;0.90;;
2522;SDS011;1272;53.332;9.860;2023-08-31T13:15:46;0.80;;;0.70;;
2522;SDS011;1272;53.332;9.860;2023-08-31T13:18:13;2.90;;;0.90;;
2522;SDS011;1272;53.332;9.860;2023-08-31T13:20:39;0.97;;;0.97;;
2522;SDS011;1272;53.332;9.860;2023-08-31T13:23:05;0.70;;;0.70;;
2522;SDS011;1272;53.332;9.860;2023-08-31T13:25:31;1.70;;;1.60;;
2522;SDS011;1272;53.332;9.860;2023-08-31T13:27:57;2.93;;;0.70;;
2522;SDS011;1272;53.332;9.860;2023-08-31T13:30:23;0.67;;;0.67;;
2522;SDS011;1272;53.332;9.860;2023-08-31T13:32:49;1.80;;;1.10;;
2522;SDS011;1272;53.332;9.860;2023-08-31T13:35:15;2.40;;;1.20;;
2522;SDS011;1272;53.332;9.860;2023-08-31T13:37:41;1.77;;;1.10;;
2522;SDS011;1272;53.332;9.860;2023-08-31T13:40:07;0.90;;;0.80;;
2522;SDS011;1272;53.332;9.860;2023-08-31T13:42:34;1.53;;;0.80;;
2522;SDS011;1272;53.332;9.860;2023-08-31T13:45:04;1.70;;;0.77;;
2522;SDS011;1272;53.332;9.860;2023-08-31T13:47:33;1.00;;;0.90;;
2522;SDS011;1272;53.332;9.860;2023-08-31T13:49:59;1.10;;;1.10;;
2522;SDS011;1272;53.332;9.860;2023-08-31T13:52:25;0.70;;;0.70;;
2522;SDS011;1272;53.332;9.860;2023-08-31T13:54:51;1.70;;;1.17;;
2522;SDS011;1272;53.332;9.860;2023-08-31T13:57:17;0.83;;;0.83;;
2522;SDS011;1272;53.332;9.860;2023-08-31T13:59:44;0.70;;;0.70;;
2522;SDS011;1272;53.332;9.860;2023-08-31T14:02:09;0.93;;;0.90;;
2522;SDS011;1272;53.332;9.860;2023-08-31T14:04:35;0.70;;;0.70;;
2522;SDS011;1272;53.332;9.860;2023-08-31T14:07:01;1.00;;;1.00;;
2522;SDS011;1272;53.332;9.860;2023-08-31T14:09:30;0.80;;;0.80;;
2522;SDS011;1272;53.332;9.860;2023-08-31T14:11:56;0.80;;;0.80;;
2522;SDS011;1272;53.332;9.860;2023-08-31T14:14:22;2.13;;;1.10;;
2522;SDS011;1272;53.332;9.860;2023-08-31T14:16:49;1.40;;;1.20;;
2522;SDS011;1272;53.332;9.860;2023-08-31T14:19:14;1.03;;;0.93;;
2522;SDS011;1272;53.332;9.860;2023-08-31T14:21:40;1.27;;;0.80;;
2522;SDS011;1272;53.332;9.860;2023-08-31T14:24:06;0.90;;;0.90;;
2522;SDS011;1272;53.332;9.860;2023-08-31T14:26:32;2.70;;;1.13;;
2522;SDS011;1272;53.332;9.860;2023-08-31T14:28:58;1.27;;;0.80;;
2522;SDS011;1272;53.332;9.860;2023-08-31T14:31:24;0.83;;;0.80;;
2522;SDS011;1272;53.332;9.860;2023-08-31T14:33:49;1.60;;;0.80;;
2522;SDS011;1272;53.332;9.860;2023-08-31T14:36:17;0.60;;;0.60;;
2522;SDS011;1272;53.332;9.860;2023-08-31T14:38:43;0.67;;;0.67;;
2522;SDS011;1272;53.332;9.860;2023-08-31T14:41:10;0.60;;;0.60;;
2522;SDS011;1272;53.332;9.860;2023-08-31T14:43:36;0.77;;;0.77;;
2522;SDS011;1272;53.332;9.860;2023-08-31T14:46:02;1.27;;;0.80;;
2522;SDS011;1272;53.332;9.860;2023-08-31T14:48:29;0.97;;;0.73;;
2522;SDS011;1272;53.332;9.860;2023-08-31T14:50:55;0.60;;;0.60;;
2522;SDS011;1272;53.332;9.860;2023-08-31T14:53:23;0.70;;;0.70;;
2522;SDS011;1272;53.332;9.860;2023-08-31T14:55:50;1.30;;;0.77;;
2522;SDS011;1272;53.332;9.860;2023-08-31T14:58:17;1.03;;;0.60;;
2522;SDS011;1272;53.332;9.860;2023-08-31T15:00:43;0.60;;;0.60;;
2522;SDS011;1272;53.332;9.860;2023-08-31T15:03:09;0.60;;;0.60;;
2522;SDS011;1272;53.332;9.860;2023-08-31T15:05:35;1.27;;;0.70;;
2522;SDS011;1272;53.332;9.860;2023-08-31T15:08:03;1.23;;;0.50;;
2522;SDS011;1272;53.332;9.860;2023-08-31T15:10:29;0.80;;;0.80;;
2522;SDS011;1272;53.332;9.860;2023-08-31T15:12:55;1.47;;;0.90;;
2522;SDS011;1272;53.332;9.860;2023-08-31T15:15:24;1.13;;;0.80;;
2522;SDS011;1272;53.332;9.860;2023-08-31T15:17:53;0.80;;;0.80;;
2522;SDS011;1272;53.332;9.860;2023-08-31T15:20:19;0.80;;;0.80;;
2522;SDS011;1272;53.332;9.860;2023-08-31T15:22:44;0.70;;;0.70;;
2522;SDS011;1272;53.332;9.860;2023-08-31T15:25:10;0.80;;;0.80;;
2522;SDS011;1272;53.332;9.860;2023-08-31T15:27:36;0.97;;;0.73;;
2522;SDS011;1272;53.332;9.860;2023-08-31T15:30:03;0.80;;;0.60;;
2522;SDS011;1272;53.332;9.860;2023-08-31T15:32:32;0.80;;;0.80;;
2522;SDS011;1272;53.332;9.860;2023-08-31T15:34:58;0.70;;;0.70;;
2522;SDS011;1272;53.332;9.860;2023-08-31T15:37:23;0.97;;;0.80;;